createdAt,value
2016-04-15T00:00:21.801Z,10.99
2016-04-15T00:01:21.788Z,11.07
2016-04-15T00:02:21.837Z,11.04
2016-04-15T00:03:21.824Z,11.04
2016-04-15T00:04:21.874Z,10.99
2016-04-15T00:05:21.892Z,11.02
2016-04-15T00:06:21.895Z,11.04
2016-04-15T00:07:21.898Z,11.1
2016-04-15T00:08:21.931Z,11.07
2016-04-15T00:09:21.950Z,11.02
2016-04-15T00:10:21.953Z,11.05
2016-04-15T00:11:21.987Z,10.97
2016-04-15T00:12:22.006Z,11.05
2016-04-15T00:13:22.023Z,11.04
2016-04-15T00:14:22.042Z,11.07
2016-04-15T00:15:22.075Z,11.04
2016-04-15T00:16:22.078Z,10.97
2016-04-15T00:17:22.097Z,10.94
2016-04-15T00:18:22.099Z,10.93
2016-04-15T00:19:22.117Z,10.94
2016-04-15T00:20:22.151Z,11
2016-04-15T00:21:22.154Z,10.93
2016-04-15T00:22:22.188Z,11
2016-04-15T00:23:22.205Z,10.86
2016-04-15T00:24:22.224Z,10.92
2016-04-15T00:25:22.227Z,10.89
2016-04-15T00:26:22.261Z,10.81
2016-04-15T00:27:22.264Z,10.81
2016-04-15T00:28:22.282Z,10.79
2016-04-15T00:29:22.301Z,10.79
2016-04-15T00:30:22.318Z,10.82
2016-04-15T00:31:22.352Z,10.84
2016-04-15T00:32:22.200Z,10.79
2016-04-15T00:33:22.375Z,10.67
2016-04-15T00:34:22.393Z,10.72
2016-04-15T00:35:22.263Z,10.78
2016-04-15T00:36:22.437Z,10.72
2016-04-15T00:37:22.471Z,10.64
2016-04-15T00:38:22.473Z,10.64
2016-04-15T00:39:22.492Z,10.69
2016-04-15T00:40:22.510Z,10.67
2016-04-15T00:41:22.512Z,10.67
2016-04-15T00:42:22.546Z,10.68
2016-04-15T00:43:22.533Z,10.67
2016-04-15T00:44:22.567Z,10.6
2016-04-15T00:45:22.586Z,10.6
2016-04-15T00:46:22.620Z,10.61
2016-04-15T00:47:22.639Z,10.64
2016-04-15T00:48:22.657Z,10.63
2016-04-15T00:49:22.644Z,10.69
2016-04-15T00:50:22.678Z,10.69
2016-04-15T00:51:22.681Z,10.71
2016-04-15T00:52:22.698Z,10.69
2016-04-15T00:53:22.733Z,10.74
2016-04-15T00:54:22.750Z,10.72
2016-04-15T00:55:22.753Z,10.76
2016-04-15T00:56:22.787Z,10.72
2016-04-15T00:57:22.805Z,10.68
2016-04-15T00:58:22.824Z,10.76
2016-04-15T00:59:22.826Z,10.81
2016-04-15T01:00:22.844Z,10.78
2016-04-15T01:01:22.879Z,10.79
2016-04-15T01:02:22.897Z,10.76
2016-04-15T01:03:22.900Z,10.76
2016-04-15T01:04:22.934Z,10.81
2016-04-15T01:05:22.952Z,10.79
2016-04-15T01:06:22.954Z,10.76
2016-04-15T01:07:22.988Z,10.82
2016-04-15T01:08:22.991Z,10.82
2016-04-15T01:09:23.026Z,10.87
2016-04-15T01:10:23.043Z,10.89
2016-04-15T01:11:23.046Z,10.76
2016-04-15T01:12:23.064Z,10.97
2016-04-15T01:13:23.098Z,10.94
2016-04-15T01:14:23.101Z,10.97
2016-04-15T01:15:23.134Z,10.96
2016-04-15T01:16:23.138Z,11.07
2016-04-15T01:17:23.156Z,10.99
2016-04-15T01:18:23.190Z,10.99
2016-04-15T01:19:23.193Z,10.96
2016-04-15T01:20:23.211Z,11.04
2016-04-15T01:21:23.230Z,10.96
2016-04-15T01:22:23.247Z,10.93
2016-04-15T01:23:23.266Z,10.9
2016-04-15T01:24:23.269Z,11.04
2016-04-15T01:25:23.302Z,10.97
2016-04-15T01:26:23.322Z,10.92
2016-04-15T01:27:23.324Z,10.89
2016-04-15T01:28:23.358Z,10.94
2016-04-15T01:29:23.361Z,10.94
2016-04-15T01:30:23.425Z,10.96
2016-04-15T01:31:23.413Z,10.96
2016-04-15T01:32:23.446Z,10.96
2016-04-15T01:33:23.449Z,10.89
2016-04-15T01:34:23.468Z,10.86
2016-04-15T01:35:23.471Z,10.82
2016-04-15T01:36:23.504Z,10.89
2016-04-15T01:37:23.507Z,10.78
2016-04-15T01:38:23.525Z,10.89
2016-04-15T01:39:23.559Z,10.82
2016-04-15T01:40:23.577Z,10.94
2016-04-15T01:41:23.564Z,10.78
2016-04-15T01:42:23.599Z,10.93
2016-04-15T01:43:23.617Z,10.89
2016-04-15T01:44:23.651Z,10.93
2016-04-15T01:45:23.654Z,10.93
2016-04-15T01:46:23.656Z,10.94
2016-04-15T01:47:23.690Z,10.96
2016-04-15T01:48:23.708Z,10.96
2016-04-15T01:49:23.726Z,10.96
2016-04-15T01:50:23.745Z,10.94
2016-04-15T01:51:23.763Z,10.97
2016-04-15T01:52:23.766Z,10.9
2016-04-15T01:53:23.799Z,10.93
2016-04-15T01:54:23.833Z,10.84
2016-04-15T01:55:23.821Z,10.97
2016-04-15T01:56:23.854Z,10.92
2016-04-15T01:57:23.858Z,10.97
2016-04-15T01:58:23.891Z,10.97
2016-04-15T01:59:23.894Z,10.94
2016-04-15T02:00:23.913Z,10.97
2016-04-15T02:01:23.947Z,10.96
2016-04-15T02:02:23.199Z,10.99
2016-04-15T02:03:23.968Z,10.84
2016-04-15T02:04:23.985Z,10.93
2016-04-15T02:05:24.019Z,10.97
2016-04-15T02:06:24.022Z,10.94
2016-04-15T02:07:24.057Z,10.94
2016-04-15T02:08:24.060Z,10.94
2016-04-15T02:09:24.077Z,11
2016-04-15T02:10:24.096Z,11.02
2016-04-15T02:11:24.115Z,10.97
2016-04-15T02:12:24.132Z,10.93
2016-04-15T02:13:24.151Z,11
2016-04-15T02:14:23.418Z,10.93
2016-04-15T02:15:24.187Z,10.96
2016-04-15T02:16:23.487Z,11.02
2016-04-15T02:17:24.239Z,10.9
2016-04-15T02:18:24.242Z,10.94
2016-04-15T02:19:24.244Z,10.9
2016-04-15T02:20:24.278Z,10.93
2016-04-15T02:21:24.344Z,10.81
2016-04-15T02:22:24.346Z,10.9
2016-04-15T02:23:24.334Z,10.96
2016-04-15T02:24:24.336Z,10.96
2016-04-15T02:25:24.370Z,10.94
2016-04-15T02:26:24.248Z,10.86
2016-04-15T02:27:24.407Z,10.92
2016-04-15T02:28:24.425Z,10.86
2016-04-15T02:29:24.428Z,10.93
2016-04-15T02:30:24.446Z,10.96
2016-04-15T02:31:24.480Z,10.96
2016-04-15T02:32:24.483Z,10.84
2016-04-15T02:33:24.516Z,10.76
2016-04-15T02:34:24.504Z,10.87
2016-04-15T02:35:24.553Z,10.81
2016-04-15T02:36:24.571Z,10.76
2016-04-15T02:37:24.574Z,10.84
2016-04-15T02:38:24.593Z,10.84
2016-04-15T02:39:24.611Z,10.92
2016-04-15T02:40:24.629Z,10.82
2016-04-15T02:41:23.898Z,10.79
2016-04-15T02:42:24.666Z,10.79
2016-04-15T02:43:24.684Z,10.78
2016-04-15T02:44:24.703Z,10.86
2016-04-15T02:45:24.705Z,10.79
2016-04-15T02:46:24.723Z,10.84
2016-04-15T02:47:24.757Z,10.82
2016-04-15T02:48:24.776Z,10.76
2016-04-15T02:49:24.795Z,10.76
2016-04-15T02:50:24.798Z,10.78
2016-04-15T02:51:24.831Z,10.81
2016-04-15T02:52:24.850Z,10.74
2016-04-15T02:53:24.853Z,10.86
2016-04-15T02:54:24.886Z,10.81
2016-04-15T02:55:24.889Z,10.82
2016-04-15T02:56:24.906Z,10.74
2016-04-15T02:57:24.925Z,10.79
2016-04-15T02:58:24.944Z,10.81
2016-04-15T02:59:24.961Z,10.75
2016-04-15T03:00:24.980Z,10.82
2016-04-15T03:01:25.014Z,10.75
2016-04-15T03:02:25.017Z,10.69
2016-04-15T03:03:25.050Z,10.75
2016-04-15T03:04:25.053Z,10.76
2016-04-15T03:05:25.056Z,10.74
2016-04-15T03:06:25.105Z,10.79
2016-04-15T03:07:25.124Z,10.74
2016-04-15T03:08:25.158Z,10.76
2016-04-15T03:09:25.129Z,10.74
2016-04-15T03:10:25.179Z,10.78
2016-04-15T03:11:25.181Z,10.76
2016-04-15T03:12:25.184Z,10.71
2016-04-15T03:13:25.234Z,10.68
2016-04-15T03:14:25.220Z,10.71
2016-04-15T03:15:25.254Z,10.64
2016-04-15T03:16:25.257Z,10.63
2016-04-15T03:17:25.291Z,10.67
2016-04-15T03:18:25.309Z,10.67
2016-04-15T03:19:25.312Z,10.67
2016-04-15T03:20:25.331Z,10.67
2016-04-15T03:21:25.365Z,10.68
2016-04-15T03:22:25.383Z,10.63
2016-04-15T03:23:25.386Z,10.59
2016-04-15T03:24:25.701Z,10.67
2016-04-15T03:25:25.422Z,10.61
2016-04-15T03:26:25.441Z,10.59
2016-04-15T03:27:25.458Z,10.63
2016-04-15T03:28:25.477Z,10.63
2016-04-15T03:29:25.339Z,10.69
2016-04-15T03:30:25.467Z,10.6
2016-04-15T03:31:25.533Z,10.6
2016-04-15T03:32:25.550Z,10.64
2016-04-15T03:33:25.569Z,10.59
2016-04-15T03:34:25.588Z,10.6
2016-04-15T03:35:25.590Z,10.53
2016-04-15T03:36:25.608Z,10.64
2016-04-15T03:37:25.641Z,10.59
2016-04-15T03:38:25.660Z,10.6
2016-04-15T03:39:25.679Z,10.63
2016-04-15T03:40:25.682Z,10.64
2016-04-15T03:41:25.715Z,10.59
2016-04-15T03:42:25.734Z,10.63
2016-04-15T03:43:25.752Z,10.63
2016-04-15T03:44:25.770Z,10.57
2016-04-15T03:45:25.898Z,10.61
2016-04-15T03:46:25.776Z,10.68
2016-04-15T03:47:25.810Z,10.61
2016-04-15T03:48:25.828Z,10.69
2016-04-15T03:49:25.862Z,10.68
2016-04-15T03:50:25.880Z,10.79
2016-04-15T03:51:25.883Z,10.79
2016-04-15T03:52:25.151Z,10.75
2016-04-15T03:53:25.919Z,10.79
2016-04-15T03:54:25.937Z,10.86
2016-04-15T03:55:25.956Z,10.71
2016-04-15T03:56:25.974Z,10.82
2016-04-15T03:57:25.992Z,10.81
2016-04-15T03:58:26.010Z,10.75
2016-04-15T03:59:26.013Z,10.76
2016-04-15T04:00:26.360Z,10.82
2016-04-15T04:01:26.081Z,10.84
2016-04-15T04:02:26.100Z,10.9
2016-04-15T04:03:26.102Z,10.94
2016-04-15T04:04:26.121Z,10.84
2016-04-15T04:05:26.139Z,10.81
2016-04-15T04:06:26.141Z,10.92
2016-04-15T04:07:26.160Z,10.82
2016-04-15T04:08:26.179Z,10.79
2016-04-15T04:09:26.196Z,10.79
2016-04-15T04:10:26.230Z,10.71
2016-04-15T04:11:26.249Z,10.72
2016-04-15T04:12:26.268Z,10.69
2016-04-15T04:13:26.270Z,10.69
2016-04-15T04:14:26.288Z,10.69
2016-04-15T04:15:26.432Z,10.68
2016-04-15T04:16:26.325Z,10.59
2016-04-15T04:17:26.359Z,10.67
2016-04-15T04:18:26.377Z,10.57
2016-04-15T04:19:26.379Z,10.48
2016-04-15T04:20:26.398Z,10.48
2016-04-15T04:21:26.432Z,10.46
2016-04-15T04:22:26.450Z,10.41
2016-04-15T04:23:26.469Z,10.44
2016-04-15T04:24:26.471Z,10.38
2016-04-15T04:25:26.489Z,10.38
2016-04-15T04:26:26.508Z,10.35
2016-04-15T04:27:26.526Z,10.33
2016-04-15T04:28:26.561Z,10.41
2016-04-15T04:29:26.564Z,10.28
2016-04-15T04:30:26.597Z,10.34
2016-04-15T04:31:26.600Z,10.26
2016-04-15T04:32:26.619Z,10.3
2016-04-15T04:33:26.636Z,10.3
2016-04-15T04:34:26.639Z,10.23
2016-04-15T04:35:26.657Z,10.3
2016-04-15T04:36:26.691Z,10.3
2016-04-15T04:37:26.710Z,10.23
2016-04-15T04:38:26.743Z,10.26
2016-04-15T04:39:26.730Z,10.33
2016-04-15T04:40:26.748Z,10.33
2016-04-15T04:41:26.767Z,10.26
2016-04-15T04:42:26.785Z,10.23
2016-04-15T04:43:26.819Z,10.12
2016-04-15T04:44:26.838Z,10.2
2016-04-15T04:45:26.887Z,10.19
2016-04-15T04:46:26.874Z,10.17
2016-04-15T04:47:26.877Z,10.12
2016-04-15T04:48:26.895Z,10.12
2016-04-15T04:49:26.898Z,10.13
2016-04-15T04:50:26.947Z,10.05
2016-04-15T04:51:26.814Z,9.99
2016-04-15T04:52:27.048Z,10.12
2016-04-15T04:53:27.001Z,10.12
2016-04-15T04:54:27.393Z,10.09
2016-04-15T04:55:27.026Z,10.04
2016-04-15T04:56:27.029Z,10.09
2016-04-15T04:57:27.047Z,10.13
2016-04-15T04:58:27.066Z,10.12
2016-04-15T04:59:27.084Z,10.07
2016-04-15T05:00:27.103Z,10.04
2016-04-15T05:01:27.120Z,10.04
2016-04-15T05:02:27.139Z,10.02
2016-04-15T05:03:27.158Z,10.05
2016-04-15T05:04:27.175Z,10.09
2016-04-15T05:05:27.194Z,10.05
2016-04-15T05:06:27.212Z,10.1
2016-04-15T05:07:27.215Z,10.12
2016-04-15T05:08:27.249Z,10.12
2016-04-15T05:09:27.266Z,10.09
2016-04-15T05:10:27.286Z,10.09
2016-04-15T05:11:27.288Z,10.02
2016-04-15T05:12:27.307Z,10.04
2016-04-15T05:13:27.341Z,10.05
2016-04-15T05:14:27.343Z,9.89
2016-04-15T05:15:27.362Z,9.91
2016-04-15T05:16:27.380Z,9.91
2016-04-15T05:17:27.398Z,9.95
2016-04-15T05:18:41.495Z,9.94
2016-04-15T05:19:27.465Z,9.97
2016-04-15T05:20:27.468Z,9.99
2016-04-15T05:21:27.315Z,9.89
2016-04-15T05:22:27.489Z,10.05
2016-04-15T05:23:27.508Z,9.98
2016-04-15T05:24:27.542Z,9.97
2016-04-15T05:25:27.544Z,10.04
2016-04-15T05:26:27.609Z,10.04
2016-04-15T05:27:27.612Z,10.02
2016-04-15T05:28:27.662Z,10.02
2016-04-15T05:29:27.650Z,9.99
2016-04-15T05:30:27.698Z,10.04
2016-04-15T05:31:27.701Z,10.07
2016-04-15T05:32:27.719Z,10.09
2016-04-15T05:33:27.738Z,10.09
2016-04-15T05:34:27.725Z,10.07
2016-04-15T05:35:27.727Z,10.09
2016-04-15T05:36:27.731Z,10.1
2016-04-15T05:37:27.764Z,10.1
2016-04-15T05:38:27.783Z,10.04
2016-04-15T05:39:27.833Z,10.12
2016-04-15T05:40:27.835Z,10.13
2016-04-15T05:41:27.853Z,10.16
2016-04-15T05:42:27.871Z,10.1
2016-04-15T05:43:27.874Z,10.13
2016-04-15T05:44:27.877Z,10.17
2016-04-15T05:45:27.879Z,9.98
2016-04-15T05:46:27.913Z,10.04
2016-04-15T05:47:27.932Z,10.12
2016-04-15T05:48:27.965Z,10.1
2016-04-15T05:49:27.968Z,10.16
2016-04-15T05:50:27.987Z,10.1
2016-04-15T05:51:27.989Z,10.16
2016-04-15T05:52:28.024Z,10.15
2016-04-15T05:53:28.042Z,10.13
2016-04-15T05:54:28.045Z,10.19
2016-04-15T05:55:28.063Z,10.19
2016-04-15T05:56:28.097Z,10.2
2016-04-15T05:57:28.100Z,10.28
2016-04-15T05:58:28.133Z,10.31
2016-04-15T05:59:28.136Z,10.25
2016-04-15T06:00:28.623Z,10.28
2016-04-15T06:01:28.156Z,10.26
2016-04-15T06:02:28.191Z,10.38
2016-04-15T06:03:28.208Z,10.4
2016-04-15T06:04:28.227Z,10.4
2016-04-15T06:05:28.246Z,10.41
2016-04-15T06:06:28.279Z,10.35
2016-04-15T06:07:28.282Z,10.33
2016-04-15T06:08:28.300Z,10.34
2016-04-15T06:09:28.319Z,10.41
2016-04-15T06:10:28.338Z,10.41
2016-04-15T06:11:28.356Z,10.34
2016-04-15T06:12:28.358Z,10.44
2016-04-15T06:13:28.361Z,10.4
2016-04-15T06:14:28.395Z,10.46
2016-04-15T06:15:28.429Z,10.42
2016-04-15T06:16:28.447Z,10.38
2016-04-15T06:17:28.449Z,10.42
2016-04-15T06:18:28.452Z,10.44
2016-04-15T06:19:28.502Z,10.51
2016-04-15T06:20:28.521Z,10.46
2016-04-15T06:21:28.544Z,10.41
2016-04-15T06:22:28.533Z,10.44
2016-04-15T06:23:28.567Z,10.41
2016-04-15T06:24:28.586Z,10.42
2016-04-15T06:25:28.588Z,10.46
2016-04-15T06:26:28.606Z,10.46
2016-04-15T06:27:28.707Z,10.41
2016-04-15T06:28:28.632Z,10.44
2016-04-15T06:29:28.665Z,10.46
2016-04-15T06:30:28.684Z,10.53
2016-04-15T06:31:28.687Z,10.51
2016-04-15T06:32:28.705Z,10.51
2016-04-15T06:33:28.724Z,10.53
2016-04-15T06:34:28.789Z,10.48
2016-04-15T06:35:28.760Z,10.68
2016-04-15T06:36:28.794Z,10.63
2016-04-15T06:37:28.797Z,10.64
2016-04-15T06:38:28.846Z,10.68
2016-04-15T06:39:28.865Z,10.63
2016-04-15T06:40:28.914Z,10.74
2016-04-15T06:41:28.870Z,10.75
2016-04-15T06:42:28.951Z,10.74
2016-04-15T06:43:28.906Z,10.78
2016-04-15T06:44:28.956Z,10.81
2016-04-15T06:45:28.958Z,10.89
2016-04-15T06:46:29.008Z,10.93
2016-04-15T06:47:28.964Z,10.94
2016-04-15T06:48:29.013Z,10.93
2016-04-15T06:49:29.017Z,10.99
2016-04-15T06:50:29.066Z,10.92
2016-04-15T06:51:29.053Z,10.93
2016-04-15T06:52:29.103Z,10.94
2016-04-15T06:53:29.089Z,10.97
2016-04-15T06:54:29.108Z,10.99
2016-04-15T06:55:29.110Z,11.14
2016-04-15T06:56:29.144Z,11.11
2016-04-15T06:57:29.132Z,11
2016-04-15T06:58:29.181Z,11.1
2016-04-15T06:59:29.184Z,11.14
2016-04-15T07:00:29.219Z,11.12
2016-04-15T07:01:29.221Z,11.12
2016-04-15T07:02:29.224Z,11.1
2016-04-15T07:03:29.257Z,11.14
2016-04-15T07:04:29.276Z,11.15
2016-04-15T07:05:29.310Z,11.22
2016-04-15T07:06:29.312Z,11.22
2016-04-15T07:07:29.330Z,11.36
2016-04-15T07:08:29.349Z,11.41
2016-04-15T07:09:29.351Z,11.41
2016-04-15T07:10:29.385Z,11.54
2016-04-15T07:11:29.403Z,11.48
2016-04-15T07:12:29.406Z,11.54
2016-04-15T07:13:29.425Z,11.59
2016-04-15T07:14:29.459Z,11.55
2016-04-15T07:15:29.477Z,11.57
2016-04-15T07:16:29.495Z,11.62
2016-04-15T07:17:28.764Z,11.7
2016-04-15T07:18:28.782Z,11.73
2016-04-15T07:19:29.535Z,11.78
2016-04-15T07:20:29.569Z,11.83
2016-04-15T07:21:29.591Z,11.78
2016-04-15T07:22:29.594Z,11.87
2016-04-15T07:23:29.613Z,11.87
2016-04-15T07:24:29.630Z,11.84
2016-04-15T07:25:29.649Z,11.87
2016-04-15T07:26:29.667Z,11.91
2016-04-15T07:27:29.685Z,11.9
2016-04-15T07:28:29.710Z,12.03
2016-04-15T07:29:28.977Z,12
2016-04-15T07:30:29.746Z,12.02
2016-04-15T07:31:29.749Z,12.06
2016-04-15T07:32:29.798Z,12.06
2016-04-15T07:33:29.832Z,12.09
2016-04-15T07:34:29.819Z,12.12
2016-04-15T07:35:29.822Z,12.06
2016-04-15T07:36:29.887Z,12.04
2016-04-15T07:37:29.889Z,12.03
2016-04-15T07:38:29.923Z,12.1
2016-04-15T07:39:29.926Z,12.15
2016-04-15T07:40:29.928Z,12.13
2016-04-15T07:41:29.964Z,12.15
2016-04-15T07:42:29.997Z,12.12
2016-04-15T07:43:30.000Z,12.17
2016-04-15T07:44:30.050Z,12.22
2016-04-15T07:45:30.036Z,12.13
2016-04-15T07:46:30.070Z,12.09
2016-04-15T07:47:30.072Z,12.1
2016-04-15T07:48:30.122Z,12.09
2016-04-15T07:49:29.953Z,12.15
2016-04-15T07:50:30.143Z,12.07
2016-04-15T07:51:30.177Z,12.04
2016-04-15T07:52:30.163Z,12.1
2016-04-15T07:53:30.182Z,12.12
2016-04-15T07:54:30.185Z,12.1
2016-04-15T07:55:30.234Z,12.1
2016-04-15T07:56:30.222Z,11.97
2016-04-15T07:57:30.256Z,11.99
2016-04-15T07:58:30.274Z,12.02
2016-04-15T07:59:30.292Z,11.91
2016-04-15T08:00:28.795Z,12.04
2016-04-15T08:01:30.313Z,11.99
2016-04-15T08:02:30.347Z,12
2016-04-15T08:03:30.350Z,12.09
2016-04-15T08:04:30.384Z,12.1
2016-04-15T08:05:30.403Z,12.07
2016-04-15T08:06:30.437Z,12.04
2016-04-15T08:07:30.424Z,12.02
2016-04-15T08:08:30.457Z,12
2016-04-15T08:09:30.476Z,11.95
2016-04-15T08:10:30.494Z,11.94
2016-04-15T08:11:31.090Z,11.88
2016-04-15T08:12:30.531Z,11.87
2016-04-15T08:13:30.549Z,11.87
2016-04-15T08:14:30.567Z,11.84
2016-04-15T08:15:30.585Z,11.83
2016-04-15T08:16:30.604Z,11.81
2016-04-15T08:17:30.638Z,11.78
2016-04-15T08:18:30.625Z,11.8
2016-04-15T08:19:30.644Z,11.87
2016-04-15T08:20:30.677Z,11.9
2016-04-15T08:21:30.701Z,11.78
2016-04-15T08:22:30.720Z,11.8
2016-04-15T08:23:31.034Z,11.83
2016-04-15T08:24:30.741Z,11.77
2016-04-15T08:25:30.774Z,11.87
2016-04-15T08:26:30.792Z,11.8
2016-04-15T08:27:30.811Z,11.73
2016-04-15T08:28:30.844Z,11.7
2016-04-15T08:29:30.848Z,11.69
2016-04-15T08:30:30.866Z,11.68
2016-04-15T08:31:30.890Z,11.66
2016-04-15T08:32:30.950Z,11.72
2016-04-15T08:33:30.995Z,11.65
2016-04-15T08:34:31.071Z,11.69
2016-04-15T08:35:31.102Z,11.81
2016-04-15T08:36:31.175Z,11.66
2016-04-15T08:37:31.224Z,11.7
2016-04-15T08:38:31.352Z,11.69
2016-04-15T08:39:31.323Z,11.7
2016-04-15T08:40:31.310Z,11.77
2016-04-15T08:41:31.373Z,11.84
2016-04-15T08:42:31.397Z,11.78
2016-04-15T08:43:31.405Z,11.84
2016-04-15T08:44:31.461Z,11.88
2016-04-15T08:45:31.453Z,11.95
2016-04-15T08:46:33.273Z,11.87
2016-04-15T08:47:31.825Z,12.04
2016-04-15T08:48:31.626Z,12.06
2016-04-15T08:49:31.537Z,12.07
2016-04-15T08:50:31.588Z,12.2
2016-04-15T08:51:31.561Z,12.28
2016-04-15T08:52:31.597Z,12.25
2016-04-15T08:53:31.615Z,12.36
2016-04-15T08:54:31.635Z,12.39
2016-04-15T08:55:31.654Z,12.4
2016-04-15T08:56:31.688Z,12.49
2016-04-15T08:57:31.691Z,12.43
2016-04-15T08:58:31.709Z,12.49
2016-04-15T08:59:31.745Z,12.54
2016-04-15T09:00:31.762Z,12.54
2016-04-15T09:01:31.812Z,12.55
2016-04-15T09:02:31.784Z,12.54
2016-04-15T09:03:31.803Z,12.58
2016-04-15T09:04:31.821Z,12.64
2016-04-15T09:05:31.840Z,12.75
2016-04-15T09:06:31.873Z,12.76
2016-04-15T09:07:31.892Z,12.76
2016-04-15T09:08:31.909Z,12.9
2016-04-15T09:09:31.928Z,12.97
2016-04-15T09:10:31.947Z,12.97
2016-04-15T09:11:31.964Z,12.98
2016-04-15T09:12:31.998Z,13
2016-04-15T09:13:32.000Z,13.03
2016-04-15T09:14:32.035Z,13.16
2016-04-15T09:15:32.038Z,13.18
2016-04-15T09:16:32.134Z,13.3
2016-04-15T09:17:32.075Z,13.38
2016-04-15T09:18:32.108Z,13.33
2016-04-15T09:19:32.111Z,13.38
2016-04-15T09:20:32.144Z,13.35
2016-04-15T09:21:32.179Z,13.37
2016-04-15T09:22:32.182Z,13.42
2016-04-15T09:23:32.216Z,13.56
2016-04-15T09:24:32.249Z,13.46
2016-04-15T09:25:32.238Z,13.57
2016-04-15T09:26:32.271Z,13.65
2016-04-15T09:27:32.274Z,13.74
2016-04-15T09:28:32.291Z,13.72
2016-04-15T09:29:32.310Z,13.83
2016-04-15T09:30:32.329Z,13.87
2016-04-15T09:31:32.424Z,14.03
2016-04-15T09:32:32.412Z,13.99
2016-04-15T09:33:32.398Z,13.97
2016-04-15T09:34:32.479Z,14.15
2016-04-15T09:35:32.435Z,14.2
2016-04-15T09:36:42.001Z,14.43
2016-04-15T09:37:38.754Z,14.45
2016-04-15T09:38:43.506Z,14.55
2016-04-15T09:39:42.087Z,14.63
2016-04-15T09:40:32.573Z,14.79
2016-04-15T09:41:42.201Z,14.72
2016-04-15T09:42:43.126Z,14.78
2016-04-15T09:43:41.941Z,14.81
2016-04-15T09:44:45.491Z,14.86
2016-04-15T09:45:38.008Z,15
2016-04-15T09:46:39.183Z,15.1
2016-04-15T09:47:39.999Z,15.18
2016-04-15T09:48:36.970Z,15.18
2016-04-15T09:49:34.848Z,15.21
2016-04-15T09:50:43.460Z,15.29
2016-04-15T09:51:36.463Z,15.22
2016-04-15T09:52:36.465Z,15.19
2016-04-15T09:53:38.890Z,15.18
2016-04-15T09:54:40.377Z,15.03
2016-04-15T09:55:41.146Z,15.06
2016-04-15T09:56:51.992Z,15.07
2016-04-15T09:57:43.167Z,15.15
2016-04-15T09:58:32.966Z,15.19
2016-04-15T09:59:32.922Z,15.14
2016-04-15T10:00:33.315Z,15.19
2016-04-15T10:01:33.990Z,15.31
2016-04-15T10:02:33.242Z,15.47
2016-04-15T10:03:33.792Z,15.61
2016-04-15T10:04:33.013Z,15.67
2016-04-15T10:05:32.297Z,15.68
2016-04-15T10:06:33.612Z,15.83
2016-04-15T10:07:33.084Z,16
2016-04-15T10:08:33.103Z,16.1
2016-04-15T10:09:33.121Z,16.23
2016-04-15T10:10:33.154Z,16.29
2016-04-15T10:11:33.173Z,16.15
2016-04-15T10:12:33.206Z,16.38
2016-04-15T10:13:33.209Z,16.33
2016-04-15T10:14:33.275Z,16.33
2016-04-15T10:15:33.261Z,16.53
2016-04-15T10:16:33.342Z,16.6
2016-04-15T10:17:33.313Z,16.64
2016-04-15T10:18:33.316Z,16.58
2016-04-15T10:19:33.350Z,16.64
2016-04-15T10:20:33.385Z,16.57
2016-04-15T10:21:33.388Z,16.66
2016-04-15T10:22:42.046Z,16.75
2016-04-15T10:23:33.424Z,16.97
2016-04-15T10:24:33.457Z,16.91
2016-04-15T10:25:33.476Z,16.78
2016-04-15T10:26:33.510Z,16.65
2016-04-15T10:27:33.513Z,16.58
2016-04-15T10:28:33.578Z,16.58
2016-04-15T10:29:33.550Z,16.57
2016-04-15T10:30:35.287Z,16.36
2016-04-15T10:31:33.602Z,16.21
2016-04-15T10:32:33.620Z,16.12
2016-04-15T10:33:33.638Z,16.01
2016-04-15T10:34:33.672Z,15.91
2016-04-15T10:35:33.706Z,15.91
2016-04-15T10:36:33.709Z,15.82
2016-04-15T10:37:33.726Z,15.8
2016-04-15T10:38:33.762Z,15.82
2016-04-15T10:39:33.764Z,15.94
2016-04-15T10:40:33.798Z,15.92
2016-04-15T10:41:33.831Z,15.88
2016-04-15T10:42:33.850Z,15.98
2016-04-15T10:43:33.853Z,16.02
2016-04-15T10:44:33.902Z,16.24
2016-04-15T10:45:33.889Z,16.32
2016-04-15T10:46:33.907Z,16.35
2016-04-15T10:47:33.941Z,16.5
2016-04-15T10:48:33.975Z,16.49
2016-04-15T10:49:33.977Z,16.42
2016-04-15T10:50:34.012Z,16.53
2016-04-15T10:51:34.030Z,16.74
2016-04-15T10:52:34.064Z,16.79
2016-04-15T10:53:34.066Z,16.93
2016-04-15T10:54:34.101Z,17.04
2016-04-15T10:55:34.744Z,17.12
2016-04-15T10:56:34.153Z,17.08
2016-04-15T10:57:34.172Z,16.96
2016-04-15T10:58:34.175Z,16.94
2016-04-15T10:59:34.208Z,16.94
2016-04-15T11:00:34.211Z,16.96
2016-04-15T11:01:34.246Z,16.91
2016-04-15T11:02:34.263Z,16.93
2016-04-15T11:03:34.282Z,16.81
2016-04-15T11:04:34.315Z,16.75
2016-04-15T11:05:34.631Z,16.75
2016-04-15T11:06:34.351Z,16.84
2016-04-15T11:07:34.386Z,17.02
2016-04-15T11:08:34.389Z,16.99
2016-04-15T11:09:34.423Z,16.97
2016-04-15T11:10:34.441Z,17.08
2016-04-15T11:11:34.459Z,16.96
2016-04-15T11:12:34.493Z,16.89
2016-04-15T11:13:33.762Z,16.84
2016-04-15T11:14:34.514Z,16.76
2016-04-15T11:15:34.564Z,16.84
2016-04-15T11:16:34.566Z,16.99
2016-04-15T11:17:34.600Z,16.99
2016-04-15T11:18:34.633Z,17.12
2016-04-15T11:19:34.636Z,17.23
2016-04-15T11:20:34.671Z,17.26
2016-04-15T11:21:34.705Z,17.39
2016-04-15T11:22:34.739Z,17.45
2016-04-15T11:23:34.725Z,17.48
2016-04-15T11:24:34.791Z,17.46
2016-04-15T11:25:34.777Z,17.36
2016-04-15T11:26:34.812Z,17.52
2016-04-15T11:27:34.815Z,17.46
2016-04-15T11:28:34.849Z,17.39
2016-04-15T11:29:34.867Z,17.42
2016-04-15T11:30:34.886Z,17.56
2016-04-15T11:31:34.919Z,17.65
2016-04-15T11:32:34.922Z,17.64
2016-04-15T11:33:34.956Z,17.63
2016-04-15T11:34:34.974Z,17.68
2016-04-15T11:35:35.852Z,17.87
2016-04-15T11:36:39.932Z,17.78
2016-04-15T11:37:35.029Z,17.82
2016-04-15T11:38:35.062Z,18.01
2016-04-15T11:39:35.098Z,17.97
2016-04-15T11:40:35.115Z,18
2016-04-15T11:41:37.212Z,18.2
2016-04-15T11:42:35.151Z,18.2
2016-04-15T11:43:35.014Z,18.22
2016-04-15T11:44:35.189Z,18.2
2016-04-15T11:45:35.222Z,18.1
2016-04-15T11:46:35.241Z,17.98
2016-04-15T11:47:35.259Z,17.83
2016-04-15T11:48:35.292Z,17.92
2016-04-15T11:49:35.311Z,17.82
2016-04-15T11:50:35.330Z,17.65
2016-04-15T11:51:35.347Z,17.68
2016-04-15T11:52:35.382Z,17.56
2016-04-15T11:53:35.635Z,17.51
2016-04-15T11:54:35.449Z,17.51
2016-04-15T11:55:35.436Z,17.51
2016-04-15T11:56:35.471Z,17.68
2016-04-15T11:57:35.489Z,17.76
2016-04-15T11:58:35.555Z,17.64
2016-04-15T11:59:35.526Z,17.72
2016-04-15T12:00:35.638Z,17.65
2016-04-15T12:01:35.609Z,17.76
2016-04-15T12:02:35.659Z,17.72
2016-04-15T12:03:35.645Z,17.74
2016-04-15T12:04:35.679Z,17.86
2016-04-15T12:05:35.667Z,17.89
2016-04-15T12:06:35.748Z,17.94
2016-04-15T12:07:35.703Z,17.95
2016-04-15T12:08:35.972Z,17.87
2016-04-15T12:09:35.756Z,17.87
2016-04-15T12:10:35.792Z,17.82
2016-04-15T12:11:35.811Z,17.71
2016-04-15T12:12:35.828Z,17.72
2016-04-15T12:13:35.894Z,17.56
2016-04-15T12:14:35.880Z,17.46
2016-04-15T12:15:35.899Z,17.52
2016-04-15T12:16:35.776Z,17.45
2016-04-15T12:17:35.795Z,17.36
2016-04-15T12:18:35.954Z,17.34
2016-04-15T12:19:36.003Z,17.29
2016-04-15T12:20:35.850Z,17.26
2016-04-15T12:21:36.040Z,17.3
2016-04-15T12:22:36.058Z,17.51
2016-04-15T12:23:36.076Z,17.65
2016-04-15T12:24:36.095Z,17.76
2016-04-15T12:25:36.123Z,17.71
2016-04-15T12:26:36.141Z,17.68
2016-04-15T12:27:36.175Z,17.72
2016-04-15T12:28:36.178Z,17.7
2016-04-15T12:29:36.196Z,17.7
2016-04-15T12:30:36.231Z,17.64
2016-04-15T12:31:36.248Z,17.7
2016-04-15T12:32:36.283Z,17.64
2016-04-15T12:33:36.300Z,17.63
2016-04-15T12:34:36.319Z,17.6
2016-04-15T12:35:36.337Z,17.63
2016-04-15T12:36:36.372Z,17.54
2016-04-15T12:37:36.390Z,17.38
2016-04-15T12:38:36.392Z,17.19
2016-04-15T12:39:36.427Z,16.93
2016-04-15T12:40:36.460Z,16.69
2016-04-15T12:41:36.463Z,16.76
2016-04-15T12:42:36.497Z,16.96
2016-04-15T12:43:36.515Z,17.19
2016-04-15T12:44:36.549Z,17.34
2016-04-15T12:45:36.567Z,17.27
2016-04-15T12:46:36.571Z,17.33
2016-04-15T12:47:36.604Z,17.41
2016-04-15T12:48:36.622Z,17.42
2016-04-15T12:49:36.657Z,17.36
2016-04-15T12:50:36.659Z,17.48
2016-04-15T12:51:36.709Z,17.6
2016-04-15T12:52:36.711Z,17.67
2016-04-15T12:53:36.745Z,17.67
2016-04-15T12:54:36.747Z,17.68
2016-04-15T12:55:36.765Z,17.94
2016-04-15T12:56:36.800Z,18.08